sensor_id;sensor_type;location;lat;lon;timestamp;pressure;altitude;pressure_sealevel;temperature;humidity
75627;BME280;64211;49.404;11.034;2022-12-19T00:01:32;99317.13;;;-3.68;76.29
75627;BME280;64211;49.404;11.034;2022-12-19T00:04:03;99315.44;;;-3.69;76.22
75627;BME280;64211;49.404;11.034;2022-12-19T00:06:34;99314.28;;;-3.78;76.63
75627;BME280;64211;49.404;11.034;2022-12-19T00:09:02;99301.69;;;-3.71;76.70
75627;BME280;64211;49.404;11.034;2022-12-19T00:11:29;99300.13;;;-3.74;76.71
75627;BME280;64211;49.404;11.034;2022-12-19T00:13:55;99296.16;;;-3.66;76.63
75627;BME280;64211;49.404;11.034;2022-12-19T00:16:24;99295.09;;;-3.77;76.57
75627;BME280;64211;49.404;11.034;2022-12-19T00:18:53;99296.56;;;-3.73;76.08
75627;BME280;64211;49.404;11.034;2022-12-19T00:21:23;99288.56;;;-3.69;76.69
75627;BME280;64211;49.404;11.034;2022-12-19T00:23:50;99269.88;;;-3.76;76.40
75627;BME280;64211;49.404;11.034;2022-12-19T00:26:18;99247.44;;;-3.79;76.24
75627;BME280;64211;49.404;11.034;2022-12-19T00:28:45;99266.59;;;-3.92;76.09
75627;BME280;64211;49.404;11.034;2022-12-19T00:31:14;99288.06;;;-3.89;76.94
75627;BME280;64211;49.404;11.034;2022-12-19T00:33:41;99296.19;;;-3.93;76.54
75627;BME280;64211;49.404;11.034;2022-12-19T00:36:12;99295.44;;;-3.95;76.99
75627;BME280;64211;49.404;11.034;2022-12-19T00:38:43;99286.50;;;-3.91;76.51
75627;BME280;64211;49.404;11.034;2022-12-19T00:41:12;99293.28;;;-3.89;76.40
75627;BME280;64211;49.404;11.034;2022-12-19T00:43:39;99282.41;;;-3.95;76.70
75627;BME280;64211;49.404;11.034;2022-12-19T00:46:09;99298.34;;;-4.00;76.46
75627;BME280;64211;49.404;11.034;2022-12-19T00:48:36;99287.63;;;-3.95;76.67
75627;BME280;64211;49.404;11.034;2022-12-19T00:51:05;99272.28;;;-4.00;76.75
75627;BME280;64211;49.404;11.034;2022-12-19T00:53:33;99268.97;;;-3.89;76.50
75627;BME280;64211;49.404;11.034;2022-12-19T00:56:09;99249.91;;;-3.90;76.47
75627;BME280;64211;49.404;11.034;2022-12-19T00:58:36;99265.00;;;-3.95;76.33
75627;BME280;64211;49.404;11.034;2022-12-19T01:01:11;99280.34;;;-3.90;76.45
75627;BME280;64211;49.404;11.034;2022-12-19T01:03:37;99294.72;;;-3.97;75.85
75627;BME280;64211;49.404;11.034;2022-12-19T01:06:04;99296.91;;;-3.91;76.08
75627;BME280;64211;49.404;11.034;2022-12-19T01:08:31;99283.59;;;-3.87;76.50
75627;BME280;64211;49.404;11.034;2022-12-19T01:10:58;99289.44;;;-3.83;76.34
75627;BME280;64211;49.404;11.034;2022-12-19T01:13:27;99296.72;;;-3.88;76.20
75627;BME280;64211;49.404;11.034;2022-12-19T01:15:54;99299.94;;;-3.85;76.25
75627;BME280;64211;49.404;11.034;2022-12-19T01:18:21;99299.00;;;-3.84;75.78
75627;BME280;64211;49.404;11.034;2022-12-19T01:20:48;99304.03;;;-3.81;76.25
75627;BME280;64211;49.404;11.034;2022-12-19T01:23:15;99304.53;;;-3.88;76.24
75627;BME280;64211;49.404;11.034;2022-12-19T01:25:47;99282.22;;;-3.92;76.48
75627;BME280;64211;49.404;11.034;2022-12-19T01:28:14;99282.41;;;-3.95;76.97
75627;BME280;64211;49.404;11.034;2022-12-19T01:35:58;99280.88;;;-3.85;76.59
75627;BME280;64211;49.404;11.034;2022-12-19T01:38:34;99267.66;;;-3.82;76.62
75627;BME280;64211;49.404;11.034;2022-12-19T01:41:01;99277.78;;;-3.78;76.41
75627;BME280;64211;49.404;11.034;2022-12-19T01:43:30;99273.41;;;-3.77;76.31
75627;BME280;64211;49.404;11.034;2022-12-19T01:46:00;99272.19;;;-3.72;76.26
75627;BME280;64211;49.404;11.034;2022-12-19T01:48:33;99276.44;;;-3.71;76.84
75627;BME280;64211;49.404;11.034;2022-12-19T01:51:06;99278.31;;;-3.73;76.03
75627;BME280;64211;49.404;11.034;2022-12-19T01:53:42;99271.75;;;-3.78;76.40
75627;BME280;64211;49.404;11.034;2022-12-19T01:56:16;99282.22;;;-3.92;76.97
75627;BME280;64211;49.404;11.034;2022-12-19T01:58:45;99284.22;;;-3.83;76.83
75627;BME280;64211;49.404;11.034;2022-12-19T02:01:13;99282.34;;;-3.81;76.61
75627;BME280;64211;49.404;11.034;2022-12-19T02:03:40;99274.34;;;-3.78;76.59
75627;BME280;64211;49.404;11.034;2022-12-19T02:06:08;99286.63;;;-3.80;76.71
75627;BME280;64211;49.404;11.034;2022-12-19T02:08:35;99284.16;;;-3.69;76.35
75627;BME280;64211;49.404;11.034;2022-12-19T02:11:02;99273.94;;;-3.72;76.36
75627;BME280;64211;49.404;11.034;2022-12-19T02:13:29;99277.69;;;-3.76;76.29
75627;BME280;64211;49.404;11.034;2022-12-19T02:16:18;99281.97;;;-3.75;76.61
75627;BME280;64211;49.404;11.034;2022-12-19T02:22:00;99281.78;;;-3.72;76.86
75627;BME280;64211;49.404;11.034;2022-12-19T02:32:31;99271.78;;;-3.65;76.68
75627;BME280;64211;49.404;11.034;2022-12-19T02:35:19;99272.19;;;-3.72;76.79
75627;BME280;64211;49.404;11.034;2022-12-19T02:38:08;99274.88;;;-3.73;76.84
75627;BME280;64211;49.404;11.034;2022-12-19T02:40:49;99282.19;;;-3.65;76.73
75627;BME280;64211;49.404;11.034;2022-12-19T02:43:21;99278.97;;;-3.56;76.57
75627;BME280;64211;49.404;11.034;2022-12-19T02:45:50;99278.69;;;-3.52;76.54
75627;BME280;64211;49.404;11.034;2022-12-19T02:48:17;99282.63;;;-3.59;76.89
75627;BME280;64211;49.404;11.034;2022-12-19T02:50:45;99280.13;;;-3.60;76.66
75627;BME280;64211;49.404;11.034;2022-12-19T02:53:15;99277.41;;;-3.59;76.79
75627;BME280;64211;49.404;11.034;2022-12-19T02:59:38;99286.00;;;-3.44;76.38
75627;BME280;64211;49.404;11.034;2022-12-19T03:01:48;99293.41;;;-3.51;76.55
75627;BME280;64211;49.404;11.034;2022-12-19T03:04:34;99289.56;;;-3.45;76.54
75627;BME280;64211;49.404;11.034;2022-12-19T03:12:32;99244.50;;;-3.47;76.72
75627;BME280;64211;49.404;11.034;2022-12-19T03:15:00;99276.41;;;-3.44;76.50
75627;BME280;64211;49.404;11.034;2022-12-19T03:17:27;99250.66;;;-3.35;76.42
75627;BME280;64211;49.404;11.034;2022-12-19T03:19:54;99258.38;;;-3.34;76.57
75627;BME280;64211;49.404;11.034;2022-12-19T03:22:21;99219.06;;;-3.31;76.55
75627;BME280;64211;49.404;11.034;2022-12-19T03:24:48;99251.28;;;-3.32;76.46
75627;BME280;64211;49.404;11.034;2022-12-19T03:27:25;99237.94;;;-3.27;76.46
75627;BME280;64211;49.404;11.034;2022-12-19T03:29:59;99234.78;;;-3.32;76.65
75627;BME280;64211;49.404;11.034;2022-12-19T03:32:29;99247.50;;;-3.41;77.16
75627;BME280;64211;49.404;11.034;2022-12-19T03:35:02;99244.50;;;-3.34;76.86
75627;BME280;64211;49.404;11.034;2022-12-19T03:37:33;99247.81;;;-3.32;76.96
75627;BME280;64211;49.404;11.034;2022-12-19T03:40:07;99241.81;;;-3.20;76.40
75627;BME280;64211;49.404;11.034;2022-12-19T03:42:38;99273.31;;;-3.11;76.63
75627;BME280;64211;49.404;11.034;2022-12-19T03:45:43;99275.53;;;-3.04;75.87
75627;BME280;64211;49.404;11.034;2022-12-19T03:48:15;99249.31;;;-3.03;75.83
75627;BME280;64211;49.404;11.034;2022-12-19T03:53:34;99195.34;;;-3.15;76.31
75627;BME280;64211;49.404;11.034;2022-12-19T03:58:39;99211.31;;;-3.20;76.72
75627;BME280;64211;49.404;11.034;2022-12-19T04:01:08;99200.28;;;-3.23;76.45
75627;BME280;64211;49.404;11.034;2022-12-19T04:03:35;99187.56;;;-3.28;77.11
75627;BME280;64211;49.404;11.034;2022-12-19T04:06:02;99200.38;;;-3.25;77.31
75627;BME280;64211;49.404;11.034;2022-12-19T04:08:31;99226.88;;;-3.18;77.43
75627;BME280;64211;49.404;11.034;2022-12-19T04:11:14;99251.69;;;-3.13;76.82
75627;BME280;64211;49.404;11.034;2022-12-19T04:13:50;99247.53;;;-3.02;76.60
75627;BME280;64211;49.404;11.034;2022-12-19T04:18:54;99279.69;;;-2.89;76.08
75627;BME280;64211;49.404;11.034;2022-12-19T04:21:30;99227.91;;;-2.95;76.33
75627;BME280;64211;49.404;11.034;2022-12-19T04:24:03;99257.44;;;-2.95;76.54
75627;BME280;64211;49.404;11.034;2022-12-19T04:26:33;99233.25;;;-2.97;76.54
75627;BME280;64211;49.404;11.034;2022-12-19T04:29:03;99255.16;;;-2.99;76.50
75627;BME280;64211;49.404;11.034;2022-12-19T04:31:31;99210.59;;;-2.96;76.48
75627;BME280;64211;49.404;11.034;2022-12-19T04:33:58;99229.38;;;-2.91;76.71
75627;BME280;64211;49.404;11.034;2022-12-19T04:36:24;99207.53;;;-2.90;76.51
75627;BME280;64211;49.404;11.034;2022-12-19T04:38:51;99206.41;;;-2.99;76.57
75627;BME280;64211;49.404;11.034;2022-12-19T04:41:18;99233.97;;;-2.95;76.68
75627;BME280;64211;49.404;11.034;2022-12-19T04:43:44;99220.41;;;-3.00;76.88
75627;BME280;64211;49.404;11.034;2022-12-19T04:46:11;99232.50;;;-2.99;77.23
75627;BME280;64211;49.404;11.034;2022-12-19T04:48:37;99217.19;;;-3.03;77.04
75627;BME280;64211;49.404;11.034;2022-12-19T04:51:04;99221.47;;;-3.02;77.21
75627;BME280;64211;49.404;11.034;2022-12-19T04:53:31;99258.19;;;-2.93;76.95
75627;BME280;64211;49.404;11.034;2022-12-19T04:56:05;99273.94;;;-2.82;76.89
75627;BME280;64211;49.404;11.034;2022-12-19T04:58:32;99272.69;;;-2.76;76.40
75627;BME280;64211;49.404;11.034;2022-12-19T05:01:04;99284.25;;;-2.67;76.58
75627;BME280;64211;49.404;11.034;2022-12-19T05:03:31;99266.38;;;-2.61;76.12
75627;BME280;64211;49.404;11.034;2022-12-19T05:06:10;99257.19;;;-2.54;75.83
75627;BME280;64211;49.404;11.034;2022-12-19T05:08:39;99245.41;;;-2.59;75.48
75627;BME280;64211;49.404;11.034;2022-12-19T05:11:07;99236.00;;;-2.62;76.54
75627;BME280;64211;49.404;11.034;2022-12-19T05:13:38;99234.66;;;-2.55;76.74
75627;BME280;64211;49.404;11.034;2022-12-19T05:16:07;99232.19;;;-2.45;76.43
75627;BME280;64211;49.404;11.034;2022-12-19T05:18:35;99228.66;;;-2.44;76.72
75627;BME280;64211;49.404;11.034;2022-12-19T05:21:02;99212.31;;;-2.59;76.79
75627;BME280;64211;49.404;11.034;2022-12-19T05:23:29;99214.50;;;-2.65;77.03
75627;BME280;64211;49.404;11.034;2022-12-19T05:25:59;99200.50;;;-2.64;77.58
75627;BME280;64211;49.404;11.034;2022-12-19T05:28:26;99214.22;;;-2.73;77.72
75627;BME280;64211;49.404;11.034;2022-12-19T05:31:10;99224.66;;;-2.73;77.41
75627;BME280;64211;49.404;11.034;2022-12-19T05:33:38;99220.75;;;-2.68;77.59
75627;BME280;64211;49.404;11.034;2022-12-19T05:36:05;99217.44;;;-2.70;77.68
75627;BME280;64211;49.404;11.034;2022-12-19T05:38:32;99223.50;;;-2.69;77.91
75627;BME280;64211;49.404;11.034;2022-12-19T05:40:58;99227.13;;;-2.59;77.61
75627;BME280;64211;49.404;11.034;2022-12-19T05:43:25;99234.13;;;-2.60;77.62
75627;BME280;64211;49.404;11.034;2022-12-19T05:45:51;99237.38;;;-2.56;77.65
75627;BME280;64211;49.404;11.034;2022-12-19T05:48:17;99230.88;;;-2.51;77.42
75627;BME280;64211;49.404;11.034;2022-12-19T05:50:48;99221.03;;;-2.47;77.81
75627;BME280;64211;49.404;11.034;2022-12-19T05:53:18;99209.88;;;-2.49;77.88
75627;BME280;64211;49.404;11.034;2022-12-19T05:55:51;99214.88;;;-2.46;78.37
75627;BME280;64211;49.404;11.034;2022-12-19T05:58:17;99219.03;;;-2.43;78.43
75627;BME280;64211;49.404;11.034;2022-12-19T06:00:44;99215.69;;;-2.45;79.09
75627;BME280;64211;49.404;11.034;2022-12-19T06:03:10;99216.72;;;-2.35;78.12
75627;BME280;64211;49.404;11.034;2022-12-19T06:05:37;99221.50;;;-2.29;78.62
75627;BME280;64211;49.404;11.034;2022-12-19T06:08:04;99230.06;;;-2.27;78.87
75627;BME280;64211;49.404;11.034;2022-12-19T06:10:31;99226.22;;;-2.34;78.71
75627;BME280;64211;49.404;11.034;2022-12-19T06:12:57;99214.38;;;-2.27;78.73
75627;BME280;64211;49.404;11.034;2022-12-19T06:15:24;99217.44;;;-2.33;78.96
75627;BME280;64211;49.404;11.034;2022-12-19T06:17:52;99224.75;;;-2.38;79.25
75627;BME280;64211;49.404;11.034;2022-12-19T06:20:19;99220.56;;;-2.28;78.63
75627;BME280;64211;49.404;11.034;2022-12-19T06:22:45;99208.22;;;-2.26;78.53
75627;BME280;64211;49.404;11.034;2022-12-19T06:25:12;99215.00;;;-2.24;78.78
75627;BME280;64211;49.404;11.034;2022-12-19T06:31:21;99225.13;;;-2.19;78.54
75627;BME280;64211;49.404;11.034;2022-12-19T06:33:48;99221.66;;;-2.20;78.20
75627;BME280;64211;49.404;11.034;2022-12-19T06:36:23;99233.56;;;-2.16;78.41
75627;BME280;64211;49.404;11.034;2022-12-19T06:38:51;99231.28;;;-2.20;78.33
75627;BME280;64211;49.404;11.034;2022-12-19T06:41:19;99222.38;;;-2.18;78.42
75627;BME280;64211;49.404;11.034;2022-12-19T06:44:06;99222.28;;;-2.16;78.83
75627;BME280;64211;49.404;11.034;2022-12-19T06:46:35;99214.97;;;-2.11;78.46
75627;BME280;64211;49.404;11.034;2022-12-19T06:49:01;99233.03;;;-2.08;78.91
75627;BME280;64211;49.404;11.034;2022-12-19T06:51:29;99219.84;;;-2.06;78.80
75627;BME280;64211;49.404;11.034;2022-12-19T06:53:56;99218.69;;;-2.02;79.03
75627;BME280;64211;49.404;11.034;2022-12-19T06:56:22;99212.28;;;-1.98;79.46
75627;BME280;64211;49.404;11.034;2022-12-19T06:58:49;99211.09;;;-1.94;79.08
75627;BME280;64211;49.404;11.034;2022-12-19T07:01:17;99207.75;;;-1.96;79.29
75627;BME280;64211;49.404;11.034;2022-12-19T07:03:45;99205.44;;;-1.88;79.48
75627;BME280;64211;49.404;11.034;2022-12-19T07:06:12;99205.59;;;-1.78;78.71
75627;BME280;64211;49.404;11.034;2022-12-19T07:08:39;99204.88;;;-1.69;79.26
75627;BME280;64211;49.404;11.034;2022-12-19T07:11:05;99202.78;;;-1.64;78.58
75627;BME280;64211;49.404;11.034;2022-12-19T07:13:31;99203.09;;;-1.69;79.02
75627;BME280;64211;49.404;11.034;2022-12-19T07:16:00;99198.50;;;-1.65;78.86
75627;BME280;64211;49.404;11.034;2022-12-19T07:18:29;99203.94;;;-1.68;78.81
75627;BME280;64211;49.404;11.034;2022-12-19T07:20:57;99210.41;;;-1.61;78.87
75627;BME280;64211;49.404;11.034;2022-12-19T07:23:23;99208.28;;;-1.56;78.81
75627;BME280;64211;49.404;11.034;2022-12-19T07:25:50;99214.22;;;-1.54;78.90
75627;BME280;64211;49.404;11.034;2022-12-19T07:28:16;99205.78;;;-1.58;78.71
75627;BME280;64211;49.404;11.034;2022-12-19T07:30:43;99210.06;;;-1.57;78.80
75627;BME280;64211;49.404;11.034;2022-12-19T07:33:10;99207.09;;;-1.52;78.98
75627;BME280;64211;49.404;11.034;2022-12-19T07:35:40;99208.75;;;-1.51;78.66
75627;BME280;64211;49.404;11.034;2022-12-19T07:38:07;99203.53;;;-1.51;79.24
75627;BME280;64211;49.404;11.034;2022-12-19T07:40:34;99191.75;;;-1.45;79.27
75627;BME280;64211;49.404;11.034;2022-12-19T07:43:03;99197.00;;;-1.45;79.02
75627;BME280;64211;49.404;11.034;2022-12-19T07:45:31;99189.78;;;-1.42;79.12
75627;BME280;64211;49.404;11.034;2022-12-19T07:47:59;99189.97;;;-1.45;79.50
75627;BME280;64211;49.404;11.034;2022-12-19T07:50:27;99189.84;;;-1.55;79.35
75627;BME280;64211;49.404;11.034;2022-12-19T07:52:54;99187.22;;;-1.55;79.73
75627;BME280;64211;49.404;11.034;2022-12-19T07:55:20;99185.09;;;-1.49;79.54
75627;BME280;64211;49.404;11.034;2022-12-19T07:57:47;99180.47;;;-1.46;79.46
75627;BME280;64211;49.404;11.034;2022-12-19T08:00:13;99187.72;;;-1.49;79.62
75627;BME280;64211;49.404;11.034;2022-12-19T08:02:40;99187.22;;;-1.55;79.97
75627;BME280;64211;49.404;11.034;2022-12-19T08:05:08;99187.34;;;-1.45;79.73
75627;BME280;64211;49.404;11.034;2022-12-19T08:07:34;99190.31;;;-1.49;79.92
75627;BME280;64211;49.404;11.034;2022-12-19T08:10:01;99182.13;;;-1.45;79.50
75627;BME280;64211;49.404;11.034;2022-12-19T08:12:27;99171.91;;;-1.48;79.46
75627;BME280;64211;49.404;11.034;2022-12-19T08:14:53;99169.28;;;-1.48;79.73
75627;BME280;64211;49.404;11.034;2022-12-19T08:17:22;99175.94;;;-1.44;79.72
75627;BME280;64211;49.404;11.034;2022-12-19T08:19:49;99174.53;;;-1.37;80.06
75627;BME280;64211;49.404;11.034;2022-12-19T08:22:15;99190.00;;;-1.23;79.67
75627;BME280;64211;49.404;11.034;2022-12-19T08:24:42;99184.81;;;-1.11;79.34
75627;BME280;64211;49.404;11.034;2022-12-19T08:27:08;99194.31;;;-0.99;79.04
75627;BME280;64211;49.404;11.034;2022-12-19T08:29:35;99199.31;;;-0.96;77.95
75627;BME280;64211;49.404;11.034;2022-12-19T08:32:01;99202.03;;;-0.98;79.04
75627;BME280;64211;49.404;11.034;2022-12-19T08:34:28;99210.50;;;-0.83;78.52
75627;BME280;64211;49.404;11.034;2022-12-19T08:36:54;99201.47;;;-0.79;77.83
75627;BME280;64211;49.404;11.034;2022-12-19T08:39:21;99196.09;;;-0.77;78.14
75627;BME280;64211;49.404;11.034;2022-12-19T08:41:47;99195.38;;;-0.79;78.23
75627;BME280;64211;49.404;11.034;2022-12-19T08:44:13;99195.38;;;-0.79;78.17
75627;BME280;64211;49.404;11.034;2022-12-19T08:46:41;99197.28;;;-0.81;78.20
75627;BME280;64211;49.404;11.034;2022-12-19T08:49:15;99197.41;;;-0.72;78.04
75627;BME280;64211;49.404;11.034;2022-12-19T08:51:41;99190.88;;;-0.66;77.79
75627;BME280;64211;49.404;11.034;2022-12-19T08:54:07;99184.66;;;-0.65;77.88
75627;BME280;64211;49.404;11.034;2022-12-19T08:56:37;99185.47;;;-0.53;77.85
75627;BME280;64211;49.404;11.034;2022-12-19T08:59:13;99179.75;;;-0.47;77.31
75627;BME280;64211;49.404;11.034;2022-12-19T09:01:51;99181.91;;;-0.52;77.93
75627;BME280;64211;49.404;11.034;2022-12-19T09:04:18;99185.59;;;-0.44;78.03
75627;BME280;64211;49.404;11.034;2022-12-19T09:07:04;99194.38;;;-0.34;77.34
75627;BME280;64211;49.404;11.034;2022-12-19T09:09:31;99192.56;;;-0.22;77.40
75627;BME280;64211;49.404;11.034;2022-12-19T09:11:57;99182.91;;;-0.21;76.20
75627;BME280;64211;49.404;11.034;2022-12-19T09:14:24;99174.09;;;-0.20;77.05
75627;BME280;64211;49.404;11.034;2022-12-19T09:16:50;99176.34;;;-0.16;76.45
75627;BME280;64211;49.404;11.034;2022-12-19T09:19:17;99190.09;;;-0.03;76.57
75627;BME280;64211;49.404;11.034;2022-12-19T09:21:43;99195.63;;;0.15;76.58
75627;BME280;64211;49.404;11.034;2022-12-19T09:24:10;99198.22;;;0.26;75.98
75627;BME280;64211;49.404;11.034;2022-12-19T09:26:36;99189.81;;;0.12;75.88
75627;BME280;64211;49.404;11.034;2022-12-19T09:29:07;99193.06;;;0.04;75.59
75627;BME280;64211;49.404;11.034;2022-12-19T09:31:46;99188.66;;;0.05;75.77
75627;BME280;64211;49.404;11.034;2022-12-19T09:34:16;99196.91;;;0.00;75.88
75627;BME280;64211;49.404;11.034;2022-12-19T09:36:43;99188.41;;;0.08;75.95
75627;BME280;64211;49.404;11.034;2022-12-19T09:39:10;99187.97;;;0.03;75.83
75627;BME280;64211;49.404;11.034;2022-12-19T09:47:12;99194.78;;;0.26;75.61
75627;BME280;64211;49.404;11.034;2022-12-19T09:49:41;99183.91;;;0.30;75.81
75627;BME280;64211;49.404;11.034;2022-12-19T09:52:29;99168.84;;;0.33;75.56
75627;BME280;64211;49.404;11.034;2022-12-19T09:55:17;99173.59;;;0.39;75.40
75627;BME280;64211;49.404;11.034;2022-12-19T09:57:50;99171.09;;;0.37;75.27
75627;BME280;64211;49.404;11.034;2022-12-19T10:00:19;99172.94;;;0.46;75.78
75627;BME280;64211;49.404;11.034;2022-12-19T10:02:53;99164.75;;;0.60;75.04
75627;BME280;64211;49.404;11.034;2022-12-19T10:08:32;99161.66;;;0.76;73.81
75627;BME280;64211;49.404;11.034;2022-12-19T10:14:21;99170.16;;;0.89;72.91
75627;BME280;64211;49.404;11.034;2022-12-19T10:17:08;99167.84;;;0.96;73.19
75627;BME280;64211;49.404;11.034;2022-12-19T10:20:14;99172.84;;;0.99;73.51
75627;BME280;64211;49.404;11.034;2022-12-19T10:30:32;99157.78;;;1.11;72.90
75627;BME280;64211;49.404;11.034;2022-12-19T10:33:32;99157.06;;;0.99;72.40
75627;BME280;64211;49.404;11.034;2022-12-19T10:36:04;99170.22;;;0.99;73.31
75627;BME280;64211;49.404;11.034;2022-12-19T10:38:35;99168.44;;;1.09;73.62
75627;BME280;64211;49.404;11.034;2022-12-19T10:41:19;99172.50;;;1.23;73.49
75627;BME280;64211;49.404;11.034;2022-12-19T10:44:02;99167.13;;;1.25;72.78
75627;BME280;64211;49.404;11.034;2022-12-19T10:46:37;99158.28;;;1.26;72.88
75627;BME280;64211;49.404;11.034;2022-12-19T10:54:22;99150.41;;;1.35;72.61
75627;BME280;64211;49.404;11.034;2022-12-19T10:57:16;99153.63;;;1.48;71.83
75627;BME280;64211;49.404;11.034;2022-12-19T10:59:53;99150.31;;;1.56;72.16
75627;BME280;64211;49.404;11.034;2022-12-19T11:04:55;99137.19;;;1.56;72.03
75627;BME280;64211;49.404;11.034;2022-12-19T11:07:21;99128.59;;;1.54;72.08
75627;BME280;64211;49.404;11.034;2022-12-19T11:09:48;99117.69;;;1.68;71.96
75627;BME280;64211;49.404;11.034;2022-12-19T11:12:34;99115.19;;;1.67;71.85
75627;BME280;64211;49.404;11.034;2022-12-19T11:15:20;99101.22;;;1.66;71.59
75627;BME280;64211;49.404;11.034;2022-12-19T11:18:11;99080.88;;;1.68;71.26
75627;BME280;64211;49.404;11.034;2022-12-19T11:21:19;99083.34;;;1.60;71.68
75627;BME280;64211;49.404;11.034;2022-12-19T11:24:20;99092.47;;;1.56;71.97
75627;BME280;64211;49.404;11.034;2022-12-19T11:27:31;99096.34;;;1.62;71.47
75627;BME280;64211;49.404;11.034;2022-12-19T11:30:23;99099.69;;;1.64;71.83
75627;BME280;64211;49.404;11.034;2022-12-19T11:33:16;99086.97;;;1.78;71.54
75627;BME280;64211;49.404;11.034;2022-12-19T11:35:51;99091.81;;;1.73;71.27
75627;BME280;64211;49.404;11.034;2022-12-19T11:38:28;99100.78;;;1.80;72.00
75627;BME280;64211;49.404;11.034;2022-12-19T11:41:07;99099.69;;;1.93;71.72
75627;BME280;64211;49.404;11.034;2022-12-19T11:43:43;99094.16;;;1.96;71.33
75627;BME280;64211;49.404;11.034;2022-12-19T11:52:09;99069.63;;;2.05;70.84
75627;BME280;64211;49.404;11.034;2022-12-19T11:55:05;99069.06;;;2.11;70.80
75627;BME280;64211;49.404;11.034;2022-12-19T11:57:34;99054.00;;;2.13;70.75
75627;BME280;64211;49.404;11.034;2022-12-19T12:00:02;99058.69;;;2.19;70.58
75627;BME280;64211;49.404;11.034;2022-12-19T12:05:24;99037.78;;;2.55;71.58
75627;BME280;64211;49.404;11.034;2022-12-19T12:08:12;99044.53;;;2.57;69.25
75627;BME280;64211;49.404;11.034;2022-12-19T12:11:22;99052.34;;;2.49;69.48
75627;BME280;64211;49.404;11.034;2022-12-19T12:14:21;99041.88;;;2.39;69.61
75627;BME280;64211;49.404;11.034;2022-12-19T12:26:34;99024.66;;;2.35;69.98
75627;BME280;64211;49.404;11.034;2022-12-19T12:29:26;99012.91;;;2.30;70.67
75627;BME280;64211;49.404;11.034;2022-12-19T12:32:30;99006.34;;;2.16;70.88
75627;BME280;64211;49.404;11.034;2022-12-19T12:35:36;99003.69;;;2.16;71.09
75627;BME280;64211;49.404;11.034;2022-12-19T12:39:00;98997.03;;;2.12;71.06
75627;BME280;64211;49.404;11.034;2022-12-19T12:44:35;98993.31;;;2.14;71.25
75627;BME280;64211;49.404;11.034;2022-12-19T12:47:19;99000.47;;;2.22;71.50
75627;BME280;64211;49.404;11.034;2022-12-19T12:52:30;99010.13;;;2.41;70.96
75627;BME280;64211;49.404;11.034;2022-12-19T12:54:58;99019.25;;;2.46;70.58
75627;BME280;64211;49.404;11.034;2022-12-19T13:00:24;99011.75;;;2.79;69.89
75627;BME280;64211;49.404;11.034;2022-12-19T13:03:01;99005.50;;;2.80;69.97
75627;BME280;64211;49.404;11.034;2022-12-19T13:08:38;98982.84;;;2.60;70.23
75627;BME280;64211;49.404;11.034;2022-12-19T13:11:13;98967.66;;;2.54;70.30
75627;BME280;64211;49.404;11.034;2022-12-19T13:13:59;98970.19;;;2.45;70.66
75627;BME280;64211;49.404;11.034;2022-12-19T13:19:38;98949.38;;;2.52;70.97
75627;BME280;64211;49.404;11.034;2022-12-19T13:22:19;98957.38;;;2.60;71.00
75627;BME280;64211;49.404;11.034;2022-12-19T13:24:50;98953.78;;;2.61;70.49
75627;BME280;64211;49.404;11.034;2022-12-19T13:41:03;98990.09;;;3.03;70.15
75627;BME280;64211;49.404;11.034;2022-12-19T13:43:50;98990.94;;;3.03;69.82
75627;BME280;64211;49.404;11.034;2022-12-19T13:46:41;98992.84;;;2.84;70.02
75627;BME280;64211;49.404;11.034;2022-12-19T13:49:16;98986.63;;;2.85;70.41
75627;BME280;64211;49.404;11.034;2022-12-19T13:51:50;98987.00;;;2.90;70.38
75627;BME280;64211;49.404;11.034;2022-12-19T13:56:46;98983.03;;;2.86;70.46
75627;BME280;64211;49.404;11.034;2022-12-19T13:59:13;98979.81;;;2.82;70.08
75627;BME280;64211;49.404;11.034;2022-12-19T14:01:40;98989.31;;;2.75;70.79
75627;BME280;64211;49.404;11.034;2022-12-19T14:04:14;98985.16;;;2.72;70.82
75627;BME280;64211;49.404;11.034;2022-12-19T14:06:54;98970.13;;;2.55;71.29
75627;BME280;64211;49.404;11.034;2022-12-19T14:12:19;98981.41;;;2.47;71.84
75627;BME280;64211;49.404;11.034;2022-12-19T14:15:34;98980.13;;;2.52;71.83
75627;BME280;64211;49.404;11.034;2022-12-19T14:18:08;98973.81;;;2.44;71.58
75627;BME280;64211;49.404;11.034;2022-12-19T14:24:14;98964.00;;;2.37;72.44
75627;BME280;64211;49.404;11.034;2022-12-19T14:26:41;98951.69;;;2.37;72.57
75627;BME280;64211;49.404;11.034;2022-12-19T14:29:54;98947.09;;;2.39;72.66
75627;BME280;64211;49.404;11.034;2022-12-19T14:32:41;98946.81;;;2.33;72.49
75627;BME280;64211;49.404;11.034;2022-12-19T14:35:33;98945.03;;;2.33;72.50
75627;BME280;64211;49.404;11.034;2022-12-19T14:38:23;98960.97;;;2.32;72.91
75627;BME280;64211;49.404;11.034;2022-12-19T14:44:15;98971.63;;;2.30;73.34
75627;BME280;64211;49.404;11.034;2022-12-19T14:47:09;98961.69;;;2.24;73.22
75627;BME280;64211;49.404;11.034;2022-12-19T14:49:56;98954.78;;;2.23;73.50
75627;BME280;64211;49.404;11.034;2022-12-19T14:52:43;98956.72;;;2.21;73.29
75627;BME280;64211;49.404;11.034;2022-12-19T14:55:35;98954.09;;;2.11;73.71
75627;BME280;64211;49.404;11.034;2022-12-19T14:58:33;98957.72;;;2.10;73.89
75627;BME280;64211;49.404;11.034;2022-12-19T15:01:21;98956.88;;;2.10;73.95
75627;BME280;64211;49.404;11.034;2022-12-19T15:04:13;98958.16;;;2.06;74.03
75627;BME280;64211;49.404;11.034;2022-12-19T15:07:04;98962.97;;;2.10;73.61
75627;BME280;64211;49.404;11.034;2022-12-19T15:13:00;98960.78;;;2.06;73.67
75627;BME280;64211;49.404;11.034;2022-12-19T15:16:05;98959.84;;;1.97;74.16
75627;BME280;64211;49.404;11.034;2022-12-19T15:21:04;98960.00;;;1.96;74.57
75627;BME280;64211;49.404;11.034;2022-12-19T15:23:31;98964.13;;;1.98;74.33
75627;BME280;64211;49.404;11.034;2022-12-19T15:26:03;98967.34;;;1.92;74.67
75627;BME280;64211;49.404;11.034;2022-12-19T15:28:38;98962.78;;;1.94;74.50
75627;BME280;64211;49.404;11.034;2022-12-19T15:31:22;98958.19;;;1.87;74.93
75627;BME280;64211;49.404;11.034;2022-12-19T15:33:50;98958.06;;;1.88;74.43